createdAt,value
2022-09-12T00:01:09.675Z,12.40
2022-09-12T00:03:55.209Z,12.30
2022-09-12T00:06:37.434Z,12.30
2022-09-12T00:09:16.265Z,12.30
2022-09-12T00:11:51.890Z,12.30
2022-09-12T00:14:22.916Z,12.40
2022-09-12T00:16:55.638Z,12.40
2022-09-12T00:19:23.589Z,12.40
2022-09-12T00:21:53.906Z,12.40
2022-09-12T00:24:32.714Z,12.40
2022-09-12T00:27:02.627Z,12.40
2022-09-12T00:29:35.863Z,12.40
2022-09-12T00:32:03.559Z,12.40
2022-09-12T00:34:34.367Z,12.30
2022-09-12T00:37:03.199Z,12.40
2022-09-12T00:39:31.214Z,12.40
2022-09-12T00:41:58.769Z,12.40
2022-09-12T00:44:30.632Z,12.30
2022-09-12T00:47:00.094Z,12.30
2022-09-12T00:49:53.900Z,12.20
2022-09-12T00:52:35.924Z,12.20
2022-09-12T00:55:21.388Z,12.20
2022-09-12T00:57:54.741Z,12.30
2022-09-12T01:00:30.430Z,12.30
2022-09-12T01:03:15.961Z,12.20
2022-09-12T01:06:17.054Z,12.20
2022-09-12T01:08:48.522Z,12.20
2022-09-12T01:11:19.440Z,12.10
2022-09-12T01:13:48.177Z,12.10
2022-09-12T01:16:19.220Z,12.20
2022-09-12T01:19:07.808Z,12.20
2022-09-12T01:21:39.637Z,12.20
2022-09-12T01:24:46.808Z,12.20
2022-09-12T01:27:33.127Z,12.10
2022-09-12T01:30:36.930Z,12.20
2022-09-12T01:33:33.659Z,12.30
2022-09-12T01:36:35.335Z,12.20
2022-09-12T01:39:26.575Z,12.30
2022-09-12T01:42:30.657Z,12.20
2022-09-12T01:45:21.590Z,12.20
2022-09-12T01:48:13.817Z,12.30
2022-09-12T01:50:57.258Z,12.30
2022-09-12T01:53:28.713Z,12.30
2022-09-12T01:56:12.734Z,12.20
2022-09-12T01:59:02.870Z,12.10
2022-09-12T02:01:47.534Z,12.30
2022-09-12T02:04:34.116Z,12.20
2022-09-12T02:07:09.269Z,12.10
2022-09-12T02:09:44.800Z,12.10
2022-09-12T02:12:20.134Z,12.10
2022-09-12T02:14:58.174Z,12.10
2022-09-12T02:17:41.366Z,12.10
2022-09-12T02:20:46.876Z,12.10
2022-09-12T02:23:25.933Z,12.20
2022-09-12T02:25:59.969Z,12.10
2022-09-12T02:28:43.514Z,12.10
2022-09-12T02:31:37.828Z,12.00
2022-09-12T02:34:13.226Z,12.10
2022-09-12T02:37:08.994Z,12.00
2022-09-12T02:39:44.505Z,12.10
2022-09-12T02:42:17.849Z,12.10
2022-09-12T02:44:49.019Z,12.10
2022-09-12T02:47:41.722Z,12.00
2022-09-12T02:50:19.002Z,12.10
2022-09-12T02:53:09.107Z,12.10
2022-09-12T02:55:45.164Z,12.10
2022-09-12T02:58:20.735Z,12.10
2022-09-12T03:01:20.691Z,12.00
2022-09-12T03:04:23.133Z,12.10
2022-09-12T03:06:56.874Z,12.10
2022-09-12T03:10:16.538Z,12.00
2022-09-12T03:13:16.331Z,12.00
2022-09-12T03:16:08.194Z,12.00
2022-09-12T03:19:06.426Z,12.10
2022-09-12T03:21:47.677Z,12.10
2022-09-12T03:24:41.983Z,12.00
2022-09-12T03:27:36.640Z,12.20
2022-09-12T03:30:08.351Z,12.10
2022-09-12T03:32:52.070Z,12.10
2022-09-12T03:35:23.125Z,12.10
2022-09-12T03:37:58.879Z,12.20
2022-09-12T03:40:26.952Z,12.10
2022-09-12T03:43:00.860Z,12.20
2022-09-12T03:45:32.228Z,12.20
2022-09-12T03:48:02.091Z,12.20
2022-09-12T03:50:31.006Z,12.20
2022-09-12T03:53:03.679Z,12.20
2022-09-12T03:55:32.580Z,12.30
2022-09-12T03:58:00.848Z,12.40
2022-09-12T04:00:34.964Z,12.40
2022-09-12T04:03:03.031Z,12.30
2022-09-12T04:05:33.542Z,12.40
2022-09-12T04:08:03.689Z,12.30
2022-09-12T04:10:34.560Z,12.40
2022-09-12T04:13:13.746Z,12.40
2022-09-12T04:15:41.715Z,12.40
2022-09-12T04:18:11.059Z,12.30
2022-09-12T04:20:39.365Z,12.40
2022-09-12T04:23:08.627Z,12.30
2022-09-12T04:25:43.502Z,12.40
2022-09-12T04:28:34.995Z,12.30
2022-09-12T04:31:17.903Z,12.30
2022-09-12T04:33:46.724Z,12.20
2022-09-12T04:36:19.897Z,12.30
2022-09-12T04:38:52.601Z,12.30
2022-09-12T04:41:24.995Z,12.30
2022-09-12T04:43:53.844Z,12.30
2022-09-12T04:46:24.377Z,12.30
2022-09-12T04:48:56.624Z,12.20
2022-09-12T04:51:29.112Z,12.20
2022-09-12T04:54:03.238Z,12.20
2022-09-12T04:56:51.816Z,12.30
2022-09-12T04:59:28.082Z,12.30
2022-09-12T05:02:01.754Z,12.40
2022-09-12T05:04:33.637Z,12.40
2022-09-12T05:07:01.219Z,12.40
2022-09-12T05:09:30.492Z,12.40
2022-09-12T05:12:04.685Z,12.50
2022-09-12T05:14:37.322Z,12.40
2022-09-12T05:17:07.532Z,12.60
2022-09-12T05:19:39.110Z,12.60
2022-09-12T05:22:07.842Z,12.60
2022-09-12T05:24:37.704Z,12.60
2022-09-12T05:27:18.239Z,12.70
2022-09-12T05:30:03.161Z,12.60
2022-09-12T05:32:38.861Z,12.70
2022-09-12T05:35:24.190Z,12.80
2022-09-12T05:38:04.424Z,12.80
2022-09-12T05:40:39.248Z,12.80
2022-09-12T05:43:24.407Z,12.70
2022-09-12T05:45:58.307Z,12.70
2022-09-12T05:48:31.347Z,12.70
2022-09-12T05:51:12.973Z,12.60
2022-09-12T05:57:29.462Z,12.50
2022-09-12T06:00:33.325Z,12.60
2022-09-12T06:06:20.298Z,12.60
2022-09-12T06:12:23.591Z,12.60
2022-09-12T06:15:20.159Z,12.60
2022-09-12T06:17:58.389Z,12.80
2022-09-12T06:21:01.777Z,12.80
2022-09-12T06:23:48.330Z,12.80
2022-09-12T06:26:25.633Z,12.70
2022-09-12T06:29:23.755Z,12.90
2022-09-12T06:32:07.875Z,12.90
2022-09-12T06:34:43.963Z,13.00
2022-09-12T06:37:12.596Z,13.10
2022-09-12T06:39:59.793Z,13.20
2022-09-12T06:42:27.890Z,13.30
2022-09-12T06:45:02.162Z,13.20
2022-09-12T06:47:49.840Z,13.30
2022-09-12T06:50:22.996Z,13.30
2022-09-12T06:52:58.282Z,13.20
2022-09-12T06:58:31.497Z,13.30
2022-09-12T07:01:10.580Z,13.30
2022-09-12T07:04:03.461Z,13.20
2022-09-12T07:06:55.360Z,13.20
2022-09-12T07:09:31.930Z,13.20
2022-09-12T07:12:19.318Z,13.20
2022-09-12T07:15:22.934Z,13.20
2022-09-12T07:17:56.151Z,13.30
2022-09-12T07:20:38.950Z,13.30
2022-09-12T07:23:23.874Z,13.40
2022-09-12T07:26:12.291Z,13.50
2022-09-12T07:29:03.708Z,13.60
2022-09-12T07:32:03.500Z,13.70
2022-09-12T07:34:49.535Z,13.80
2022-09-12T07:37:31.066Z,13.90
2022-09-12T07:40:30.456Z,13.90
2022-09-12T07:42:58.973Z,14.00
2022-09-12T07:45:45.986Z,14.00
2022-09-12T07:48:24.776Z,14.00
2022-09-12T07:51:09.724Z,14.00
2022-09-12T07:59:41.815Z,13.80
2022-09-12T08:02:30.917Z,13.80
2022-09-12T08:05:03.447Z,13.80
2022-09-12T08:07:40.785Z,13.70
2022-09-12T08:10:23.564Z,13.70
2022-09-12T08:15:51.197Z,13.80
2022-09-12T08:18:41.798Z,14.00
2022-09-12T08:21:45.818Z,14.30
2022-09-12T08:24:17.743Z,14.60
2022-09-12T08:26:55.071Z,15.00
2022-09-12T08:29:23.827Z,15.10
2022-09-12T08:31:57.492Z,15.10
2022-09-12T08:34:31.116Z,15.10
2022-09-12T08:37:11.541Z,15.10
2022-09-12T08:39:45.005Z,14.90
2022-09-12T08:42:28.134Z,14.80
2022-09-12T08:45:18.691Z,14.60
2022-09-12T08:47:52.194Z,14.30
2022-09-12T08:50:25.954Z,14.20
2022-09-12T08:53:04.633Z,14.20
2022-09-12T08:55:52.555Z,14.30
2022-09-12T08:58:35.022Z,14.30
2022-09-12T09:01:47.577Z,14.40
2022-09-12T09:04:49.408Z,14.70
2022-09-12T09:07:55.349Z,14.90
2022-09-12T09:14:43.084Z,15.20
2022-09-12T09:17:29.313Z,15.60
2022-09-12T09:20:24.113Z,15.70
2022-09-12T09:26:30.670Z,15.70
2022-09-12T09:29:58.103Z,15.70
2022-09-12T09:33:16.435Z,15.80
2022-09-12T09:36:00.091Z,15.90
2022-09-12T09:39:25.643Z,15.80
2022-09-12T09:42:24.462Z,15.70
2022-09-12T09:45:11.747Z,15.60
2022-09-12T09:47:47.671Z,15.40
2022-09-12T09:50:27.405Z,15.10
2022-09-12T09:53:01.773Z,15.00
2022-09-12T09:55:37.847Z,15.00
2022-09-12T09:58:37.854Z,15.00
2022-09-12T10:01:21.421Z,15.00
2022-09-12T10:04:02.568Z,15.10
2022-09-12T10:06:35.874Z,15.30
2022-09-12T10:09:21.209Z,15.50
2022-09-12T10:11:50.547Z,15.90
2022-09-12T10:14:38.402Z,16.30
2022-09-12T10:17:42.646Z,16.70
2022-09-12T10:20:32.125Z,16.90
2022-09-12T10:23:37.665Z,17.20
2022-09-12T10:26:23.205Z,17.20
2022-09-12T10:28:59.671Z,17.20
2022-09-12T10:31:39.269Z,17.20
2022-09-12T10:34:07.124Z,16.90
2022-09-12T10:36:43.460Z,16.90
2022-09-12T10:39:20.228Z,16.90
2022-09-12T10:41:49.014Z,16.90
2022-09-12T10:44:28.078Z,16.80
2022-09-12T10:47:26.352Z,16.60
2022-09-12T10:50:05.156Z,16.30
2022-09-12T10:52:38.190Z,16.20
2022-09-12T10:55:13.882Z,16.10
2022-09-12T10:58:09.284Z,16.20
2022-09-12T11:00:40.819Z,16.20
2022-09-12T11:03:25.308Z,16.10
2022-09-12T11:05:59.391Z,16.00
2022-09-12T11:08:46.810Z,16.00
2022-09-12T11:11:46.039Z,15.90
2022-09-12T11:14:32.750Z,15.80
2022-09-12T11:20:44.813Z,15.80
2022-09-12T11:23:36.654Z,15.80
2022-09-12T11:26:27.454Z,15.80
2022-09-12T11:29:16.171Z,15.80
2022-09-12T11:32:25.486Z,15.80
2022-09-12T11:35:17.760Z,15.90
2022-09-12T11:38:26.082Z,16.10
2022-09-12T11:41:08.862Z,16.30
2022-09-12T11:44:04.044Z,16.50
2022-09-12T11:47:23.689Z,16.50
2022-09-12T11:50:05.712Z,16.60
2022-09-12T11:52:40.553Z,16.80
2022-09-12T11:55:26.028Z,16.80
2022-09-12T11:57:58.819Z,16.70
2022-09-12T12:00:54.015Z,16.50
2022-09-12T12:03:48.437Z,16.40
2022-09-12T12:06:26.168Z,16.40
2022-09-12T12:08:56.735Z,16.50
2022-09-12T12:11:42.069Z,16.50
2022-09-12T12:14:45.440Z,16.50
2022-09-12T12:17:27.256Z,16.50
2022-09-12T12:20:06.466Z,16.50
2022-09-12T12:22:36.674Z,16.50
2022-09-12T12:25:22.936Z,16.50
2022-09-12T12:27:54.394Z,16.40
2022-09-12T12:31:00.318Z,16.30
2022-09-12T12:33:40.750Z,16.20
2022-09-12T12:36:35.787Z,16.20
2022-09-12T12:39:37.245Z,15.90
2022-09-12T12:42:08.223Z,15.90
2022-09-12T12:44:44.847Z,15.80
2022-09-12T12:47:23.248Z,15.80
2022-09-12T12:50:00.297Z,15.80
2022-09-12T12:56:59.233Z,15.90
2022-09-12T12:59:35.839Z,16.00
2022-09-12T13:02:05.095Z,16.10
2022-09-12T13:04:45.179Z,16.20
2022-09-12T13:07:33.257Z,16.20
2022-09-12T13:10:11.194Z,16.00
2022-09-12T13:12:57.835Z,15.80
2022-09-12T13:15:40.868Z,15.70
2022-09-12T13:18:22.372Z,15.60
2022-09-12T13:21:11.763Z,15.60
2022-09-12T13:23:44.916Z,15.50
2022-09-12T13:26:24.133Z,15.40
2022-09-12T13:29:09.413Z,15.40
2022-09-12T13:31:37.679Z,15.30
2022-09-12T13:34:25.646Z,15.20
2022-09-12T13:37:12.227Z,15.10
2022-09-12T13:40:21.962Z,15.10
2022-09-12T13:43:25.720Z,15.10
2022-09-12T13:46:07.048Z,15.10
2022-09-12T13:48:36.066Z,15.10
2022-09-12T13:51:08.270Z,15.20
2022-09-12T13:53:48.421Z,15.40
2022-09-12T13:56:23.142Z,15.50
2022-09-12T13:59:00.716Z,15.60
2022-09-12T14:01:43.068Z,15.70
2022-09-12T14:04:39.452Z,15.80
2022-09-12T14:07:24.200Z,15.80
2022-09-12T14:10:08.410Z,15.80
2022-09-12T14:12:43.250Z,15.80
2022-09-12T14:15:30.693Z,15.70
2022-09-12T14:18:04.919Z,15.70
2022-09-12T14:20:38.784Z,15.70
2022-09-12T14:23:46.075Z,15.70
2022-09-12T14:26:16.542Z,15.70
2022-09-12T14:31:42.647Z,15.50
2022-09-12T14:34:24.267Z,15.50
2022-09-12T14:37:18.162Z,15.50
2022-09-12T14:39:52.552Z,15.40
2022-09-12T14:42:27.578Z,15.30
2022-09-12T14:45:11.055Z,15.40
2022-09-12T14:47:52.805Z,15.40
2022-09-12T14:50:29.430Z,15.20
2022-09-12T14:53:31.684Z,15.10
2022-09-12T14:56:26.802Z,15.10
2022-09-12T14:59:49.575Z,15.00
2022-09-12T15:02:30.963Z,14.90
2022-09-12T15:05:14.786Z,15.00
2022-09-12T15:08:03.458Z,14.90
2022-09-12T15:10:45.657Z,14.80
2022-09-12T15:13:30.301Z,14.80
2022-09-12T15:16:00.737Z,14.80
2022-09-12T15:18:37.186Z,14.80
2022-09-12T15:21:09.906Z,14.70
2022-09-12T15:23:52.010Z,14.70
2022-09-12T15:26:31.852Z,14.70
2022-09-12T15:29:10.095Z,14.70
2022-09-12T15:32:06.454Z,14.60
2022-09-12T15:34:55.824Z,14.60
2022-09-12T15:37:31.784Z,14.50
2022-09-12T15:40:03.369Z,14.50
2022-09-12T15:43:16.384Z,14.40
2022-09-12T15:45:30.942Z,14.50
2022-09-12T15:48:01.419Z,14.50
2022-09-12T15:50:29.544Z,14.50
2022-09-12T15:52:57.756Z,14.50
2022-09-12T15:55:30.691Z,14.50
2022-09-12T15:58:01.503Z,14.50
2022-09-12T16:00:32.585Z,14.50
2022-09-12T16:03:00.522Z,14.40
2022-09-12T16:05:29.743Z,14.40
2022-09-12T16:08:01.086Z,14.40
2022-09-12T16:10:34.151Z,14.40
2022-09-12T16:13:04.458Z,14.40
2022-09-12T16:15:34.576Z,14.40
2022-09-12T16:18:02.348Z,14.40
2022-09-12T16:20:30.432Z,14.30
2022-09-12T16:22:59.078Z,14.40
2022-09-12T16:25:30.013Z,14.30
2022-09-12T16:27:58.205Z,14.40
2022-09-12T16:30:26.039Z,14.30
2022-09-12T16:32:57.097Z,14.20
2022-09-12T16:35:24.861Z,14.30
2022-09-12T16:37:56.405Z,14.30
2022-09-12T16:40:24.956Z,14.40
2022-09-12T16:42:55.668Z,14.30
2022-09-12T16:45:23.343Z,14.30
2022-09-12T16:47:53.714Z,14.30
2022-09-12T16:50:24.183Z,14.30
2022-09-12T16:52:54.227Z,14.20
2022-09-12T16:55:24.685Z,14.20
2022-09-12T16:57:57.537Z,14.20
2022-09-12T17:00:25.819Z,14.10
2022-09-12T17:02:55.469Z,14.20
2022-09-12T17:05:26.418Z,14.10
2022-09-12T17:07:54.630Z,14.00
2022-09-12T17:10:26.396Z,14.10
2022-09-12T17:13:04.231Z,14.00
2022-09-12T17:15:44.370Z,14.00
2022-09-12T17:18:17.733Z,13.90
2022-09-12T17:20:47.280Z,13.80
2022-09-12T17:23:18.042Z,13.90
2022-09-12T17:26:01.206Z,13.80
2022-09-12T17:28:32.312Z,13.80
2022-09-12T17:31:07.087Z,13.80
2022-09-12T17:33:37.395Z,13.70
2022-09-12T17:39:05.956Z,13.80
2022-09-12T17:41:36.266Z,13.70
2022-09-12T17:44:08.780Z,13.80
2022-09-12T17:46:40.235Z,13.80
2022-09-12T17:49:09.362Z,13.80
2022-09-12T17:51:37.480Z,13.70
2022-09-12T17:54:12.093Z,13.70
2022-09-12T17:56:43.049Z,13.70
2022-09-12T17:59:24.294Z,13.70
2022-09-12T18:02:13.529Z,13.70
2022-09-12T18:04:42.056Z,13.70
2022-09-12T18:07:09.879Z,13.60
2022-09-12T18:09:37.519Z,13.60
2022-09-12T18:12:08.930Z,13.60
2022-09-12T18:14:46.842Z,13.50
2022-09-12T18:17:17.442Z,13.50
2022-09-12T18:19:56.893Z,13.50
2022-09-12T18:22:31.751Z,13.40
2022-09-12T18:25:04.500Z,13.50
2022-09-12T18:27:33.049Z,13.40
2022-09-12T18:30:20.103Z,13.50
2022-09-12T18:33:00.293Z,13.40
2022-09-12T18:35:27.966Z,13.50
2022-09-12T18:40:38.558Z,13.40
2022-09-12T18:43:05.941Z,13.50
2022-09-12T18:45:37.061Z,13.50
2022-09-12T18:48:10.093Z,13.50
2022-09-12T18:50:42.430Z,13.50
2022-09-12T18:53:10.501Z,13.40
2022-09-12T18:55:40.958Z,13.40
2022-09-12T18:58:09.399Z,13.40
2022-09-12T19:00:37.533Z,13.50
2022-09-12T19:03:04.993Z,13.40
2022-09-12T19:05:33.976Z,13.50
2022-09-12T19:08:06.357Z,13.60
2022-09-12T19:10:39.181Z,13.40
2022-09-12T19:13:07.182Z,13.50
2022-09-12T19:15:45.040Z,13.40
2022-09-12T19:18:13.526Z,13.30
2022-09-12T19:20:50.855Z,13.20
2022-09-12T19:23:21.987Z,13.00
2022-09-12T19:26:08.285Z,12.90
2022-09-12T19:28:41.266Z,12.90
2022-09-12T19:31:14.424Z,12.80
2022-09-12T19:33:44.738Z,12.70
2022-09-12T19:36:40.858Z,12.80
2022-09-12T19:39:02.626Z,12.70
2022-09-12T19:41:36.339Z,12.80
2022-09-12T19:44:05.294Z,12.90
2022-09-12T19:46:35.029Z,12.80
2022-09-12T19:49:03.799Z,12.80
2022-09-12T19:51:34.786Z,12.60
2022-09-12T19:54:06.306Z,12.60
2022-09-12T19:56:34.119Z,12.50
2022-09-12T19:59:02.350Z,12.40
2022-09-12T20:01:33.565Z,12.30
2022-09-12T20:04:05.427Z,12.20
2022-09-12T20:06:34.499Z,12.10
2022-09-12T20:09:02.220Z,12.10
2022-09-12T20:11:33.213Z,12.10
2022-09-12T20:14:01.184Z,12.20
2022-09-12T20:16:30.317Z,12.20
2022-09-12T20:19:07.780Z,12.20
2022-09-12T20:21:39.768Z,12.20
2022-09-12T20:24:16.768Z,12.40
2022-09-12T20:26:45.275Z,12.50
2022-09-12T20:29:20.404Z,12.40
2022-09-12T20:31:48.825Z,12.50
2022-09-12T20:34:21.560Z,12.50
2022-09-12T20:36:50.410Z,12.50
2022-09-12T20:39:20.865Z,12.60
2022-09-12T20:41:48.954Z,12.50
2022-09-12T20:44:26.198Z,12.70
2022-09-12T20:46:55.819Z,12.60
2022-09-12T20:49:27.396Z,12.60
2022-09-12T20:52:07.636Z,12.60
2022-09-12T20:54:35.687Z,12.60
2022-09-12T20:57:03.727Z,12.50
2022-09-12T20:59:41.271Z,12.50
2022-09-12T21:02:17.617Z,12.50
2022-09-12T21:04:45.297Z,12.50
2022-09-12T21:07:12.866Z,12.50
2022-09-12T21:09:42.509Z,12.60
2022-09-12T21:12:12.946Z,12.70
2022-09-12T21:14:40.195Z,12.70
2022-09-12T21:17:11.305Z,12.80
2022-09-12T21:19:40.007Z,12.80
2022-09-12T21:22:07.418Z,12.90
2022-09-12T21:24:38.765Z,12.90
2022-09-12T21:27:09.726Z,13.00
2022-09-12T21:29:41.200Z,13.00
2022-09-12T21:32:14.162Z,13.00
2022-09-12T21:34:43.228Z,13.10
2022-09-12T21:37:16.820Z,13.10
2022-09-12T21:39:52.876Z,13.10
2022-09-12T21:42:20.794Z,13.10
2022-09-12T21:44:48.596Z,13.10
2022-09-12T21:47:20.212Z,13.10
2022-09-12T21:49:59.362Z,13.20
2022-09-12T21:52:29.965Z,13.10
2022-09-12T21:54:59.882Z,13.20
2022-09-12T21:57:30.781Z,13.10
2022-09-12T22:00:02.639Z,13.10
2022-09-12T22:02:30.893Z,13.10
2022-09-12T22:05:06.474Z,13.10
2022-09-12T22:07:37.306Z,13.10
2022-09-12T22:10:25.533Z,13.00
2022-09-12T22:12:56.601Z,13.10
2022-09-12T22:15:40.084Z,13.00
2022-09-12T22:18:09.279Z,13.00
2022-09-12T22:20:39.174Z,12.90
2022-09-12T22:23:34.046Z,13.00
2022-09-12T22:26:09.844Z,12.90
2022-09-12T22:28:38.277Z,12.80
2022-09-12T22:31:07.862Z,12.90
2022-09-12T22:33:41.499Z,12.80
2022-09-12T22:36:12.138Z,12.80
2022-09-12T22:38:40.214Z,12.80
2022-09-12T22:41:13.468Z,12.70
2022-09-12T22:43:41.762Z,13.00
2022-09-12T22:46:12.326Z,12.80
2022-09-12T22:48:43.154Z,12.80
2022-09-12T22:51:20.188Z,12.90
2022-09-12T22:53:48.739Z,12.80
2022-09-12T22:56:23.714Z,12.80
2022-09-12T22:58:54.835Z,12.70
2022-09-12T23:01:31.728Z,12.70
2022-09-12T23:06:55.462Z,12.70
2022-09-12T23:09:25.492Z,12.70
2022-09-12T23:11:53.754Z,12.70
2022-09-12T23:14:24.733Z,12.60
2022-09-12T23:16:54.948Z,12.70
2022-09-12T23:19:23.336Z,12.70
2022-09-12T23:21:51.698Z,12.70
2022-09-12T23:24:24.709Z,12.70
2022-09-12T23:26:58.688Z,12.60
2022-09-12T23:29:35.447Z,12.70
2022-09-12T23:32:04.433Z,12.70
2022-09-12T23:34:41.394Z,12.70
2022-09-12T23:37:19.316Z,12.70
2022-09-12T23:39:49.974Z,12.70
2022-09-12T23:42:20.154Z,12.70
2022-09-12T23:44:51.357Z,12.60
2022-09-12T23:47:22.437Z,12.70
2022-09-12T23:49:49.856Z,12.60
2022-09-12T23:52:19.873Z,12.60
2022-09-12T23:54:47.233Z,12.60
2022-09-12T23:57:21.133Z,12.60
2022-09-12T23:59:52.381Z,12.50
